sensor_id;sensor_type;location;lat;lon;timestamp;pressure;altitude;pressure_sealevel;temperature;humidity
83559;BME280;73527;47.882;7.718;2024-02-26T00:00:09;96503.69;;;11.50;57.29
83559;BME280;73527;47.882;7.718;2024-02-26T00:02:37;96500.81;;;11.40;55.84
83559;BME280;73527;47.882;7.718;2024-02-26T00:05:06;96496.16;;;11.19;58.56
83559;BME280;73527;47.882;7.718;2024-02-26T00:07:32;96492.06;;;11.00;59.55
83559;BME280;73527;47.882;7.718;2024-02-26T00:09:58;96487.69;;;11.11;59.08
83559;BME280;73527;47.882;7.718;2024-02-26T00:12:23;96460.72;;;11.01;58.17
83559;BME280;73527;47.882;7.718;2024-02-26T00:14:49;96476.22;;;10.98;58.96
83559;BME280;73527;47.882;7.718;2024-02-26T00:17:15;96464.44;;;10.99;60.10
83559;BME280;73527;47.882;7.718;2024-02-26T00:19:41;96471.16;;;11.47;60.21
83559;BME280;73527;47.882;7.718;2024-02-26T00:22:06;96479.47;;;11.01;59.96
83559;BME280;73527;47.882;7.718;2024-02-26T00:24:31;96455.22;;;11.24;59.63
83559;BME280;73527;47.882;7.718;2024-02-26T00:26:57;96465.53;;;11.15;61.06
83559;BME280;73527;47.882;7.718;2024-02-26T00:29:22;96463.72;;;11.04;59.31
83559;BME280;73527;47.882;7.718;2024-02-26T00:31:48;96474.03;;;10.67;61.40
83559;BME280;73527;47.882;7.718;2024-02-26T00:34:14;96469.16;;;10.92;59.55
83559;BME280;73527;47.882;7.718;2024-02-26T00:36:39;96451.31;;;10.70;59.38
83559;BME280;73527;47.882;7.718;2024-02-26T00:39:04;96457.25;;;11.17;57.36
83559;BME280;73527;47.882;7.718;2024-02-26T00:41:30;96459.09;;;11.16;59.43
83559;BME280;73527;47.882;7.718;2024-02-26T00:43:55;96467.72;;;11.02;60.09
83559;BME280;73527;47.882;7.718;2024-02-26T00:46:20;96475.59;;;11.08;59.81
83559;BME280;73527;47.882;7.718;2024-02-26T00:48:46;96475.53;;;11.20;62.15
83559;BME280;73527;47.882;7.718;2024-02-26T00:51:11;96460.44;;;12.19;59.09
83559;BME280;73527;47.882;7.718;2024-02-26T00:53:36;96458.63;;;11.69;59.07
83559;BME280;73527;47.882;7.718;2024-02-26T00:56:02;96447.72;;;11.92;56.72
83559;BME280;73527;47.882;7.718;2024-02-26T00:58:27;96447.50;;;11.44;57.53
83559;BME280;73527;47.882;7.718;2024-02-26T01:00:53;96445.63;;;11.28;57.91
83559;BME280;73527;47.882;7.718;2024-02-26T01:03:18;96430.78;;;11.70;57.31
83559;BME280;73527;47.882;7.718;2024-02-26T01:05:44;96438.03;;;11.91;56.57
83559;BME280;73527;47.882;7.718;2024-02-26T01:08:10;96447.63;;;12.04;56.15
83559;BME280;73527;47.882;7.718;2024-02-26T01:10:35;96437.44;;;11.18;58.14
83559;BME280;73527;47.882;7.718;2024-02-26T01:13:01;96429.28;;;11.46;57.71
83559;BME280;73527;47.882;7.718;2024-02-26T01:15:27;96431.09;;;11.57;58.59
83559;BME280;73527;47.882;7.718;2024-02-26T01:17:52;96439.94;;;11.58;57.20
83559;BME280;73527;47.882;7.718;2024-02-26T01:20:18;96427.91;;;11.27;58.84
83559;BME280;73527;47.882;7.718;2024-02-26T01:22:44;96423.84;;;11.58;58.35
83559;BME280;73527;47.882;7.718;2024-02-26T01:25:09;96418.88;;;11.16;57.24
83559;BME280;73527;47.882;7.718;2024-02-26T01:27:38;96420.91;;;11.26;57.82
83559;BME280;73527;47.882;7.718;2024-02-26T01:30:04;96421.25;;;11.13;56.73
83559;BME280;73527;47.882;7.718;2024-02-26T01:32:30;96429.28;;;11.13;56.89
83559;BME280;73527;47.882;7.718;2024-02-26T01:34:56;96415.41;;;11.16;56.64
83559;BME280;73527;47.882;7.718;2024-02-26T01:37:22;96427.44;;;11.46;56.18
83559;BME280;73527;47.882;7.718;2024-02-26T01:39:47;96430.75;;;11.54;55.27
83559;BME280;73527;47.882;7.718;2024-02-26T01:42:12;96408.97;;;11.50;55.18
83559;BME280;73527;47.882;7.718;2024-02-26T01:44:38;96427.19;;;11.31;55.63
83559;BME280;73527;47.882;7.718;2024-02-26T01:47:04;96431.16;;;11.29;56.20
83559;BME280;73527;47.882;7.718;2024-02-26T01:49:30;96425.00;;;11.45;55.09
83559;BME280;73527;47.882;7.718;2024-02-26T01:51:57;96431.97;;;11.46;55.18
83559;BME280;73527;47.882;7.718;2024-02-26T01:54:23;96441.88;;;11.62;54.53
83559;BME280;73527;47.882;7.718;2024-02-26T01:56:49;96443.56;;;11.68;54.11
83559;BME280;73527;47.882;7.718;2024-02-26T01:59:16;96442.03;;;11.56;54.21
83559;BME280;73527;47.882;7.718;2024-02-26T02:01:42;96439.69;;;11.76;54.24
83559;BME280;73527;47.882;7.718;2024-02-26T02:04:09;96438.72;;;11.82;54.08
83559;BME280;73527;47.882;7.718;2024-02-26T02:06:35;96448.38;;;11.66;56.09
83559;BME280;73527;47.882;7.718;2024-02-26T02:09:01;96438.47;;;11.67;54.84
83559;BME280;73527;47.882;7.718;2024-02-26T02:11:32;96426.28;;;11.76;56.09
83559;BME280;73527;47.882;7.718;2024-02-26T02:13:58;96441.72;;;11.52;57.82
83559;BME280;73527;47.882;7.718;2024-02-26T02:16:23;96447.50;;;11.44;59.46
83559;BME280;73527;47.882;7.718;2024-02-26T02:18:48;96436.53;;;11.45;58.90
83559;BME280;73527;47.882;7.718;2024-02-26T02:21:14;96448.47;;;11.21;60.33
83559;BME280;73527;47.882;7.718;2024-02-26T02:23:39;96431.91;;;11.41;60.45
83559;BME280;73527;47.882;7.718;2024-02-26T02:26:05;96439.63;;;11.54;60.15
83559;BME280;73527;47.882;7.718;2024-02-26T02:28:31;96426.69;;;11.84;59.94
83559;BME280;73527;47.882;7.718;2024-02-26T02:30:56;96410.69;;;11.23;59.71
83559;BME280;73527;47.882;7.718;2024-02-26T02:33:22;96404.44;;;11.17;61.06
83559;BME280;73527;47.882;7.718;2024-02-26T02:35:48;96406.84;;;10.85;62.20
83559;BME280;73527;47.882;7.718;2024-02-26T02:38:15;96412.25;;;10.74;62.67
83559;BME280;73527;47.882;7.718;2024-02-26T02:40:41;96401.94;;;10.66;63.43
83559;BME280;73527;47.882;7.718;2024-02-26T02:43:06;96411.66;;;10.55;64.16
83559;BME280;73527;47.882;7.718;2024-02-26T02:45:31;96426.78;;;10.33;63.65
83559;BME280;73527;47.882;7.718;2024-02-26T02:47:57;96436.19;;;10.64;62.05
83559;BME280;73527;47.882;7.718;2024-02-26T02:50:22;96420.59;;;10.89;61.96
83559;BME280;73527;47.882;7.718;2024-02-26T02:52:47;96434.66;;;11.13;61.67
83559;BME280;73527;47.882;7.718;2024-02-26T02:55:16;96448.69;;;10.58;64.88
83559;BME280;73527;47.882;7.718;2024-02-26T02:57:41;96458.63;;;10.46;64.80
83559;BME280;73527;47.882;7.718;2024-02-26T03:00:11;96470.69;;;9.97;68.19
83559;BME280;73527;47.882;7.718;2024-02-26T03:02:36;96468.53;;;10.45;65.16
83559;BME280;73527;47.882;7.718;2024-02-26T03:05:05;96476.91;;;10.77;65.72
83559;BME280;73527;47.882;7.718;2024-02-26T03:07:31;96482.38;;;10.42;66.43
83559;BME280;73527;47.882;7.718;2024-02-26T03:09:57;96480.94;;;10.52;65.97
83559;BME280;73527;47.882;7.718;2024-02-26T03:12:22;96476.47;;;10.97;65.39
83559;BME280;73527;47.882;7.718;2024-02-26T03:14:48;96477.81;;;10.55;64.81
83559;BME280;73527;47.882;7.718;2024-02-26T03:17:13;96488.47;;;9.91;67.65
83559;BME280;73527;47.882;7.718;2024-02-26T03:19:40;96488.91;;;10.12;67.18
83559;BME280;73527;47.882;7.718;2024-02-26T03:22:05;96474.50;;;10.13;65.37
83559;BME280;73527;47.882;7.718;2024-02-26T03:24:31;96475.06;;;10.38;65.90
83559;BME280;73527;47.882;7.718;2024-02-26T03:26:56;96463.31;;;10.67;65.13
83559;BME280;73527;47.882;7.718;2024-02-26T03:29:21;96481.00;;;10.68;65.81
83559;BME280;73527;47.882;7.718;2024-02-26T03:31:47;96481.34;;;10.32;67.53
83559;BME280;73527;47.882;7.718;2024-02-26T03:34:12;96483.13;;;10.15;68.19
83559;BME280;73527;47.882;7.718;2024-02-26T03:36:39;96495.22;;;10.29;68.11
83559;BME280;73527;47.882;7.718;2024-02-26T03:39:05;96491.91;;;10.50;66.86
83559;BME280;73527;47.882;7.718;2024-02-26T03:41:35;96491.38;;;10.76;65.73
83559;BME280;73527;47.882;7.718;2024-02-26T03:44:01;96490.63;;;10.53;68.66
83559;BME280;73527;47.882;7.718;2024-02-26T03:46:27;96500.66;;;10.85;69.56
83559;BME280;73527;47.882;7.718;2024-02-26T03:48:52;96504.06;;;10.97;69.09
83559;BME280;73527;47.882;7.718;2024-02-26T03:51:18;96493.09;;;11.44;67.11
83559;BME280;73527;47.882;7.718;2024-02-26T03:53:43;96488.88;;;11.65;66.54
83559;BME280;73527;47.882;7.718;2024-02-26T03:56:08;96498.03;;;11.19;68.50
83559;BME280;73527;47.882;7.718;2024-02-26T03:58:36;96504.94;;;11.15;68.92
83559;BME280;73527;47.882;7.718;2024-02-26T04:01:01;96502.69;;;11.40;68.20
83559;BME280;73527;47.882;7.718;2024-02-26T04:03:26;96499.91;;;11.68;66.39
83559;BME280;73527;47.882;7.718;2024-02-26T04:05:52;96503.56;;;10.84;70.07
83559;BME280;73527;47.882;7.718;2024-02-26T04:08:17;96494.88;;;11.55;67.44
83559;BME280;73527;47.882;7.718;2024-02-26T04:10:43;96509.25;;;11.16;69.31
83559;BME280;73527;47.882;7.718;2024-02-26T04:13:08;96487.25;;;11.64;67.01
83559;BME280;73527;47.882;7.718;2024-02-26T04:15:33;96507.19;;;11.51;67.52
83559;BME280;73527;47.882;7.718;2024-02-26T04:17:59;96508.88;;;11.57;67.06
83559;BME280;73527;47.882;7.718;2024-02-26T04:20:24;96492.53;;;11.59;67.08
83559;BME280;73527;47.882;7.718;2024-02-26T04:22:50;96499.38;;;11.66;66.59
83559;BME280;73527;47.882;7.718;2024-02-26T04:25:15;96512.72;;;11.61;66.57
83559;BME280;73527;47.882;7.718;2024-02-26T04:27:40;96511.72;;;11.67;66.54
83559;BME280;73527;47.882;7.718;2024-02-26T04:30:06;96510.19;;;11.55;66.70
83559;BME280;73527;47.882;7.718;2024-02-26T04:32:32;96512.63;;;11.56;66.71
83559;BME280;73527;47.882;7.718;2024-02-26T04:34:57;96501.06;;;11.39;67.65
83559;BME280;73527;47.882;7.718;2024-02-26T04:37:22;96502.94;;;10.93;69.92
83559;BME280;73527;47.882;7.718;2024-02-26T04:39:48;96501.53;;;10.63;70.24
83559;BME280;73527;47.882;7.718;2024-02-26T04:42:13;96507.59;;;10.58;71.12
83559;BME280;73527;47.882;7.718;2024-02-26T04:44:39;96504.56;;;10.66;70.13
83559;BME280;73527;47.882;7.718;2024-02-26T04:47:04;96504.34;;;10.56;71.04
83559;BME280;73527;47.882;7.718;2024-02-26T04:49:30;96513.97;;;9.94;72.88
83559;BME280;73527;47.882;7.718;2024-02-26T04:51:55;96502.53;;;9.75;73.89
83559;BME280;73527;47.882;7.718;2024-02-26T04:54:20;96495.00;;;10.07;73.11
83559;BME280;73527;47.882;7.718;2024-02-26T04:56:46;96496.97;;;9.88;72.13
83559;BME280;73527;47.882;7.718;2024-02-26T04:59:11;96494.66;;;10.15;70.94
83559;BME280;73527;47.882;7.718;2024-02-26T05:01:37;96494.75;;;10.09;70.85
83559;BME280;73527;47.882;7.718;2024-02-26T05:04:02;96490.91;;;10.28;70.62
83559;BME280;73527;47.882;7.718;2024-02-26T05:06:31;96477.38;;;10.46;69.26
83559;BME280;73527;47.882;7.718;2024-02-26T05:08:56;96480.94;;;10.52;69.04
83559;BME280;73527;47.882;7.718;2024-02-26T05:11:22;96489.38;;;10.72;68.65
83559;BME280;73527;47.882;7.718;2024-02-26T05:13:50;96482.03;;;10.39;69.76
83559;BME280;73527;47.882;7.718;2024-02-26T05:16:15;96474.34;;;10.71;67.98
83559;BME280;73527;47.882;7.718;2024-02-26T05:18:41;96468.03;;;10.49;67.59
83559;BME280;73527;47.882;7.718;2024-02-26T05:21:06;96470.72;;;10.77;65.95
83559;BME280;73527;47.882;7.718;2024-02-26T05:23:31;96463.63;;;10.82;65.12
83559;BME280;73527;47.882;7.718;2024-02-26T05:25:57;96459.47;;;10.91;66.48
83559;BME280;73527;47.882;7.718;2024-02-26T05:28:22;96445.75;;;10.88;66.60
83559;BME280;73527;47.882;7.718;2024-02-26T05:30:47;96446.47;;;10.55;66.42
83559;BME280;73527;47.882;7.718;2024-02-26T05:33:13;96452.50;;;10.62;67.09
83559;BME280;73527;47.882;7.718;2024-02-26T05:35:39;96455.56;;;10.54;67.00
83559;BME280;73527;47.882;7.718;2024-02-26T05:38:05;96440.00;;;10.68;66.59
83559;BME280;73527;47.882;7.718;2024-02-26T05:40:30;96454.13;;;10.91;66.11
83559;BME280;73527;47.882;7.718;2024-02-26T05:42:56;96459.44;;;10.75;66.15
83559;BME280;73527;47.882;7.718;2024-02-26T05:45:21;96443.50;;;11.13;65.65
83559;BME280;73527;47.882;7.718;2024-02-26T05:47:47;96447.75;;;11.09;65.55
83559;BME280;73527;47.882;7.718;2024-02-26T05:50:12;96448.03;;;10.79;65.81
83559;BME280;73527;47.882;7.718;2024-02-26T05:52:38;96457.09;;;11.23;66.18
83559;BME280;73527;47.882;7.718;2024-02-26T05:55:04;96462.72;;;11.22;66.02
83559;BME280;73527;47.882;7.718;2024-02-26T05:57:31;96465.09;;;11.07;66.01
83559;BME280;73527;47.882;7.718;2024-02-26T05:59:56;96467.59;;;10.96;67.28
83559;BME280;73527;47.882;7.718;2024-02-26T06:02:21;96471.47;;;11.17;66.34
83559;BME280;73527;47.882;7.718;2024-02-26T06:04:47;96473.25;;;10.83;67.76
83559;BME280;73527;47.882;7.718;2024-02-26T06:07:12;96483.88;;;11.07;68.17
83559;BME280;73527;47.882;7.718;2024-02-26T06:09:37;96488.22;;;10.68;69.11
83559;BME280;73527;47.882;7.718;2024-02-26T06:12:03;96493.47;;;11.19;66.25
83559;BME280;73527;47.882;7.718;2024-02-26T06:14:28;96492.13;;;11.67;64.15
83559;BME280;73527;47.882;7.718;2024-02-26T06:16:54;96491.03;;;12.18;62.33
83559;BME280;73527;47.882;7.718;2024-02-26T06:19:19;96498.84;;;12.19;63.25
83559;BME280;73527;47.882;7.718;2024-02-26T06:21:44;96494.19;;;12.53;62.82
83559;BME280;73527;47.882;7.718;2024-02-26T06:24:10;96506.69;;;12.42;64.02
83559;BME280;73527;47.882;7.718;2024-02-26T06:26:35;96502.16;;;12.70;63.38
83559;BME280;73527;47.882;7.718;2024-02-26T06:29:00;96519.25;;;11.37;68.77
83559;BME280;73527;47.882;7.718;2024-02-26T06:31:26;96511.78;;;12.22;65.38
83559;BME280;73527;47.882;7.718;2024-02-26T06:33:56;96513.53;;;11.17;68.74
83559;BME280;73527;47.882;7.718;2024-02-26T06:36:22;96515.34;;;11.28;68.60
83559;BME280;73527;47.882;7.718;2024-02-26T06:38:47;96512.25;;;11.36;68.60
83559;BME280;73527;47.882;7.718;2024-02-26T06:41:12;96515.09;;;11.74;67.32
83559;BME280;73527;47.882;7.718;2024-02-26T06:43:38;96508.78;;;11.52;66.10
83559;BME280;73527;47.882;7.718;2024-02-26T06:46:03;96508.47;;;11.32;67.42
83559;BME280;73527;47.882;7.718;2024-02-26T06:48:28;96505.56;;;11.05;70.16
83559;BME280;73527;47.882;7.718;2024-02-26T06:50:54;96507.44;;;11.05;69.42
83559;BME280;73527;47.882;7.718;2024-02-26T06:53:19;96496.00;;;11.26;69.70
83559;BME280;73527;47.882;7.718;2024-02-26T06:55:44;96499.94;;;11.52;68.88
83559;BME280;73527;47.882;7.718;2024-02-26T06:58:10;96499.09;;;11.18;70.13
83559;BME280;73527;47.882;7.718;2024-02-26T07:00:36;96500.44;;;11.04;70.64
83559;BME280;73527;47.882;7.718;2024-02-26T07:03:01;96499.00;;;10.84;71.40
83559;BME280;73527;47.882;7.718;2024-02-26T07:05:27;96509.34;;;10.92;71.24
83559;BME280;73527;47.882;7.718;2024-02-26T07:07:52;96520.44;;;10.84;71.31
83559;BME280;73527;47.882;7.718;2024-02-26T07:10:18;96514.84;;;11.14;70.36
83559;BME280;73527;47.882;7.718;2024-02-26T07:12:44;96513.25;;;11.30;70.14
83559;BME280;73527;47.882;7.718;2024-02-26T07:15:09;96508.28;;;11.55;68.82
83559;BME280;73527;47.882;7.718;2024-02-26T07:17:35;96505.53;;;11.67;69.00
83559;BME280;73527;47.882;7.718;2024-02-26T07:20:01;96508.44;;;11.77;68.78
83559;BME280;73527;47.882;7.718;2024-02-26T07:22:26;96498.22;;;11.95;66.91
83559;BME280;73527;47.882;7.718;2024-02-26T07:24:51;96506.22;;;12.29;66.60
83559;BME280;73527;47.882;7.718;2024-02-26T07:27:18;96509.56;;;12.36;66.05
83559;BME280;73527;47.882;7.718;2024-02-26T07:29:43;96507.91;;;12.35;65.87
83559;BME280;73527;47.882;7.718;2024-02-26T07:32:09;96506.28;;;12.34;66.12
83559;BME280;73527;47.882;7.718;2024-02-26T07:34:35;96507.81;;;12.68;65.32
83559;BME280;73527;47.882;7.718;2024-02-26T07:37:02;96490.16;;;12.77;64.45
83559;BME280;73527;47.882;7.718;2024-02-26T07:39:28;96508.75;;;12.79;64.67
83559;BME280;73527;47.882;7.718;2024-02-26T07:41:53;96522.31;;;13.37;63.83
83559;BME280;73527;47.882;7.718;2024-02-26T07:44:19;96515.41;;;13.51;61.82
83559;BME280;73527;47.882;7.718;2024-02-26T07:46:44;96523.88;;;13.60;62.04
83559;BME280;73527;47.882;7.718;2024-02-26T07:49:09;96513.69;;;13.67;62.28
83559;BME280;73527;47.882;7.718;2024-02-26T07:51:35;96530.28;;;13.91;61.54
83559;BME280;73527;47.882;7.718;2024-02-26T07:54:01;96512.91;;;14.03;61.26
83559;BME280;73527;47.882;7.718;2024-02-26T07:56:26;96516.94;;;13.69;63.15
83559;BME280;73527;47.882;7.718;2024-02-26T07:58:51;96528.25;;;13.39;64.62
83559;BME280;73527;47.882;7.718;2024-02-26T08:01:17;96523.59;;;13.93;63.03
83559;BME280;73527;47.882;7.718;2024-02-26T08:03:42;96531.56;;;13.51;64.41
83559;BME280;73527;47.882;7.718;2024-02-26T08:06:08;96541.25;;;13.79;61.61
83559;BME280;73527;47.882;7.718;2024-02-26T08:08:34;96550.81;;;12.90;66.34
83559;BME280;73527;47.882;7.718;2024-02-26T08:10:59;96542.56;;;13.18;65.24
83559;BME280;73527;47.882;7.718;2024-02-26T08:13:25;96543.94;;;12.77;67.30
83559;BME280;73527;47.882;7.718;2024-02-26T08:15:51;96553.03;;;12.54;67.51
83559;BME280;73527;47.882;7.718;2024-02-26T08:18:17;96572.91;;;12.15;69.15
83559;BME280;73527;47.882;7.718;2024-02-26T08:20:42;96558.41;;;12.33;68.88
83559;BME280;73527;47.882;7.718;2024-02-26T08:23:08;96565.13;;;12.95;66.69
83559;BME280;73527;47.882;7.718;2024-02-26T08:25:33;96559.16;;;13.37;65.74
83559;BME280;73527;47.882;7.718;2024-02-26T08:27:58;96565.94;;;12.96;65.96
83559;BME280;73527;47.882;7.718;2024-02-26T08:30:24;96576.56;;;13.29;65.55
83559;BME280;73527;47.882;7.718;2024-02-26T08:32:49;96575.91;;;13.17;65.89
83559;BME280;73527;47.882;7.718;2024-02-26T08:35:15;96569.34;;;13.62;64.55
83559;BME280;73527;47.882;7.718;2024-02-26T08:37:43;96577.44;;;13.62;64.72
83559;BME280;73527;47.882;7.718;2024-02-26T08:40:09;96584.94;;;13.33;65.83
83559;BME280;73527;47.882;7.718;2024-02-26T08:42:34;96583.84;;;12.47;67.96
83559;BME280;73527;47.882;7.718;2024-02-26T08:45:00;96585.81;;;12.35;68.45
83559;BME280;73527;47.882;7.718;2024-02-26T08:47:26;96575.81;;;13.34;65.04
83559;BME280;73527;47.882;7.718;2024-02-26T08:49:52;96584.94;;;13.33;65.19
83559;BME280;73527;47.882;7.718;2024-02-26T08:52:17;96582.69;;;13.03;65.27
83559;BME280;73527;47.882;7.718;2024-02-26T08:54:42;96564.06;;;13.45;63.99
83559;BME280;73527;47.882;7.718;2024-02-26T08:57:08;96584.84;;;12.79;65.56
83559;BME280;73527;47.882;7.718;2024-02-26T08:59:33;96582.59;;;13.15;64.94
83559;BME280;73527;47.882;7.718;2024-02-26T09:01:58;96575.31;;;13.37;64.87
83559;BME280;73527;47.882;7.718;2024-02-26T09:04:24;96583.50;;;13.25;65.34
83559;BME280;73527;47.882;7.718;2024-02-26T09:06:49;96568.50;;;12.64;66.62
83559;BME280;73527;47.882;7.718;2024-02-26T09:09:14;96575.25;;;12.88;65.62
83559;BME280;73527;47.882;7.718;2024-02-26T09:11:40;96560.09;;;13.26;63.95
83559;BME280;73527;47.882;7.718;2024-02-26T09:14:05;96573.56;;;13.04;64.82
83559;BME280;73527;47.882;7.718;2024-02-26T09:16:30;96588.22;;;13.13;65.79
83559;BME280;73527;47.882;7.718;2024-02-26T09:18:56;96584.59;;;13.24;64.19
83559;BME280;73527;47.882;7.718;2024-02-26T09:21:22;96586.16;;;13.20;64.25
83559;BME280;73527;47.882;7.718;2024-02-26T09:23:49;96592.50;;;13.36;62.96
83559;BME280;73527;47.882;7.718;2024-02-26T09:26:15;96579.88;;;12.71;65.47
83559;BME280;73527;47.882;7.718;2024-02-26T09:28:40;96598.31;;;13.49;63.02
83559;BME280;73527;47.882;7.718;2024-02-26T09:31:05;96595.31;;;13.02;65.22
83559;BME280;73527;47.882;7.718;2024-02-26T09:33:32;96602.56;;;12.80;67.44
83559;BME280;73527;47.882;7.718;2024-02-26T09:35:57;96600.94;;;13.71;64.29
83559;BME280;73527;47.882;7.718;2024-02-26T09:38:23;96619.75;;;13.93;63.65
83559;BME280;73527;47.882;7.718;2024-02-26T09:40:49;96622.22;;;13.46;64.09
83559;BME280;73527;47.882;7.718;2024-02-26T09:43:17;96620.97;;;13.32;64.78
83559;BME280;73527;47.882;7.718;2024-02-26T09:45:46;96616.00;;;13.67;63.68
83559;BME280;73527;47.882;7.718;2024-02-26T09:48:12;96609.56;;;14.00;62.35
83559;BME280;73527;47.882;7.718;2024-02-26T09:50:40;96611.56;;;13.56;63.35
83559;BME280;73527;47.882;7.718;2024-02-26T09:53:08;96619.00;;;13.71;64.73
83559;BME280;73527;47.882;7.718;2024-02-26T09:55:35;96630.50;;;14.20;63.21
83559;BME280;73527;47.882;7.718;2024-02-26T09:58:01;96624.22;;;13.82;63.16
83559;BME280;73527;47.882;7.718;2024-02-26T10:00:30;96629.03;;;14.39;63.01
83559;BME280;73527;47.882;7.718;2024-02-26T10:03:03;96636.00;;;14.72;62.54
83559;BME280;73527;47.882;7.718;2024-02-26T10:05:29;96619.13;;;14.91;61.71
83559;BME280;73527;47.882;7.718;2024-02-26T10:07:54;96613.91;;;15.32;60.17
83559;BME280;73527;47.882;7.718;2024-02-26T10:10:22;96610.00;;;15.75;57.95
83559;BME280;73527;47.882;7.718;2024-02-26T10:12:48;96613.53;;;15.80;57.30
83559;BME280;73527;47.882;7.718;2024-02-26T10:15:13;96610.28;;;15.83;57.73
83559;BME280;73527;47.882;7.718;2024-02-26T10:17:38;96614.56;;;15.02;59.72
83559;BME280;73527;47.882;7.718;2024-02-26T10:20:15;96609.34;;;14.75;60.19
83559;BME280;73527;47.882;7.718;2024-02-26T10:22:41;96616.44;;;14.91;59.13
83559;BME280;73527;47.882;7.718;2024-02-26T10:25:08;96620.50;;;15.56;59.65
83559;BME280;73527;47.882;7.718;2024-02-26T10:27:34;96603.81;;;15.89;58.75
83559;BME280;73527;47.882;7.718;2024-02-26T10:30:19;96622.22;;;16.33;57.36
83559;BME280;73527;47.882;7.718;2024-02-26T10:32:46;96608.13;;;16.51;56.60
83559;BME280;73527;47.882;7.718;2024-02-26T10:35:13;96606.50;;;16.80;55.69
83559;BME280;73527;47.882;7.718;2024-02-26T10:37:40;96615.09;;;16.92;56.16
83559;BME280;73527;47.882;7.718;2024-02-26T10:40:10;96626.25;;;16.65;56.52
83559;BME280;73527;47.882;7.718;2024-02-26T10:42:36;96633.56;;;16.60;56.41
83559;BME280;73527;47.882;7.718;2024-02-26T10:45:01;96626.25;;;16.76;57.22
83559;BME280;73527;47.882;7.718;2024-02-26T10:47:29;96641.16;;;16.23;58.07
83559;BME280;73527;47.882;7.718;2024-02-26T10:49:55;96634.66;;;16.74;55.94
83559;BME280;73527;47.882;7.718;2024-02-26T10:52:22;96638.97;;;15.99;56.61
83559;BME280;73527;47.882;7.718;2024-02-26T10:54:56;96648.97;;;16.24;55.86
83559;BME280;73527;47.882;7.718;2024-02-26T10:57:22;96657.84;;;15.79;58.02
83559;BME280;73527;47.882;7.718;2024-02-26T10:59:51;96644.38;;;16.25;58.20
83559;BME280;73527;47.882;7.718;2024-02-26T11:02:19;96638.41;;;16.88;55.96
83559;BME280;73527;47.882;7.718;2024-02-26T11:04:46;96642.16;;;17.07;55.69
83559;BME280;73527;47.882;7.718;2024-02-26T11:07:11;96630.34;;;16.58;55.51
83559;BME280;73527;47.882;7.718;2024-02-26T11:09:37;96645.41;;;17.79;55.11
83559;BME280;73527;47.882;7.718;2024-02-26T11:12:09;96643.03;;;18.45;52.75
83559;BME280;73527;47.882;7.718;2024-02-26T11:14:39;96642.09;;;18.64;52.25
83559;BME280;73527;47.882;7.718;2024-02-26T11:17:05;96637.69;;;19.68;49.56
83559;BME280;73527;47.882;7.718;2024-02-26T11:19:35;96634.41;;;19.90;48.89
83559;BME280;73527;47.882;7.718;2024-02-26T11:22:01;96635.44;;;19.75;49.08
83559;BME280;73527;47.882;7.718;2024-02-26T11:24:26;96625.78;;;19.83;47.29
83559;BME280;73527;47.882;7.718;2024-02-26T11:26:55;96635.97;;;19.54;48.88
83559;BME280;73527;47.882;7.718;2024-02-26T11:29:26;96638.13;;;19.33;50.08
83559;BME280;73527;47.882;7.718;2024-02-26T11:31:53;96650.88;;;18.12;52.52
83559;BME280;73527;47.882;7.718;2024-02-26T11:34:18;96648.94;;;18.57;52.23
83559;BME280;73527;47.882;7.718;2024-02-26T11:36:43;96646.47;;;19.42;49.12
83559;BME280;73527;47.882;7.718;2024-02-26T11:39:11;96645.09;;;19.39;49.28
83559;BME280;73527;47.882;7.718;2024-02-26T11:41:38;96643.97;;;19.45;48.03
83559;BME280;73527;47.882;7.718;2024-02-26T11:44:04;96635.66;;;19.98;48.55
83559;BME280;73527;47.882;7.718;2024-02-26T11:46:42;96634.91;;;20.11;46.67
83559;BME280;73527;47.882;7.718;2024-02-26T11:51:52;96628.44;;;19.88;46.48
83559;BME280;73527;47.882;7.718;2024-02-26T11:57:04;96612.34;;;20.29;46.31
83559;BME280;73527;47.882;7.718;2024-02-26T11:59:39;96615.16;;;20.56;45.82
83559;BME280;73527;47.882;7.718;2024-02-26T12:02:07;96617.63;;;20.71;44.95
83559;BME280;73527;47.882;7.718;2024-02-26T12:04:32;96606.84;;;20.80;44.85
83559;BME280;73527;47.882;7.718;2024-02-26T12:07:01;96616.13;;;20.79;44.51
83559;BME280;73527;47.882;7.718;2024-02-26T12:09:34;96611.38;;;20.71;44.61
83559;BME280;73527;47.882;7.718;2024-02-26T12:12:02;96627.09;;;20.23;46.04
83559;BME280;73527;47.882;7.718;2024-02-26T12:14:28;96635.66;;;19.79;47.21
83559;BME280;73527;47.882;7.718;2024-02-26T12:16:55;96633.75;;;19.98;47.81
83559;BME280;73527;47.882;7.718;2024-02-26T12:19:21;96640.00;;;20.17;46.91
83559;BME280;73527;47.882;7.718;2024-02-26T12:21:51;96643.59;;;20.13;46.66
83559;BME280;73527;47.882;7.718;2024-02-26T12:24:18;96648.94;;;19.62;48.23
83559;BME280;73527;47.882;7.718;2024-02-26T12:26:45;96650.41;;;19.25;49.49
83559;BME280;73527;47.882;7.718;2024-02-26T12:29:10;96656.03;;;19.58;48.91
83559;BME280;73527;47.882;7.718;2024-02-26T12:31:36;96655.81;;;19.54;48.57
83559;BME280;73527;47.882;7.718;2024-02-26T12:34:03;96661.44;;;19.63;48.69
83559;BME280;73527;47.882;7.718;2024-02-26T12:36:29;96673.84;;;18.64;49.27
83559;BME280;73527;47.882;7.718;2024-02-26T12:38:54;96659.31;;;18.79;48.38
83559;BME280;73527;47.882;7.718;2024-02-26T12:41:20;96664.16;;;18.82;49.30
83559;BME280;73527;47.882;7.718;2024-02-26T12:43:46;96660.59;;;19.15;49.59
83559;BME280;73527;47.882;7.718;2024-02-26T12:46:12;96646.44;;;19.84;46.37
83559;BME280;73527;47.882;7.718;2024-02-26T12:48:38;96632.56;;;20.04;46.33
83559;BME280;73527;47.882;7.718;2024-02-26T12:51:05;96637.28;;;20.17;46.76
83559;BME280;73527;47.882;7.718;2024-02-26T12:53:31;96634.53;;;20.55;45.67
83559;BME280;73527;47.882;7.718;2024-02-26T12:55:57;96626.78;;;20.62;45.18
83559;BME280;73527;47.882;7.718;2024-02-26T12:58:23;96634.13;;;20.94;45.36